Egegik Airport Egegik US
ICAO: PAII
IATA:
Category: Medium
Scheduled Services:

Elevation: 92 ft
TransAlt. 18000 ft.

Airport Communications:
ANCHORAGE CNTR:124.8
AWOS 3:135.65
CTAF:122.8

PAII Zoom In..

If you have problems with the map follow the link
https://www.worldairports.se/pages/airport.php?
ICAO=PAII

Runways:

(A) RW 03 length 1500 ft width 75 ft
---- / hdg 32

(B) RW 12 length 5600 ft width 100 ft
---- / hdg 122

(C) RW 21 length 1500 ft width 75 ft
---- / hdg 212

(D) RW 30 length 5600 ft width 100 ft
---- / hdg 302

Location; PAII
Day. 13 / Time. 00.56 Zulu
* Altimeter: 29.12
* Temperature: 02° c. 35.6°f.
* Wind from: 350° Speed 05 kn.
Dewpoint: 01° c.
Visibility: 10 Statute Miles.
Clouds: Scattered 8500 ft.

PAII 130056Z AUTO 35005KT 10SM SCT085 02/01 A2912 RMK AO2 SLP860 T00170006 FZRANO TSNO


Wind From 350°
Speed 05 kn.

 
 
jpsmedia worldairports.se 2019   terms of use